Newark, Maryland
Current Conditions -  °F | °C
As of 2:53 PM on Wednesday 26 Nov 2014 (Local Time) from KOXB Reporting Station
Light Rain Light Rain  
Wind Chill: 35°   Ceiling: 1000
Heat Index: 42°   Visibility: 9mi
Dew Point: 40°   Wind: 15mph
Humidity: 92%   Direction: 20°NNE
Pressure: 29.72"   Gusts: 24mph
Location:  38.24°N, 75.28°W
Report Text: KOXB 261953Z AUTO 02013G21KT 9SM -RA OVC010 06/04 A2972 RMK AO2 PK WND 02032/1903 SLP064 P0006 T00560044 TSNO
Loading
Personal Weather Stations






























Interactive Weather Map New forecast layout! Learn more

10-Day Weather Forecast

Advertisements
Track Severe Weather on mobile